createdAt,value
2019-05-02T00:00:19.805Z,8.58
2019-05-02T00:01:19.842Z,8.45
2019-05-02T00:02:24.052Z,8.47
2019-05-02T00:03:19.926Z,8.53
2019-05-02T00:04:21.239Z,8.43
2019-05-02T00:05:19.997Z,8.43
2019-05-02T00:06:20.037Z,8.47
2019-05-02T00:07:21.732Z,8.48
2019-05-02T00:08:20.115Z,8.41
2019-05-02T00:09:20.154Z,8.36
2019-05-02T00:10:24.956Z,8.30
2019-05-02T00:11:20.233Z,8.23
2019-05-02T00:12:20.272Z,8.34
2019-05-02T00:13:20.312Z,8.19
2019-05-02T00:14:20.350Z,8.22
2019-05-02T00:15:20.388Z,8.28
2019-05-02T00:16:20.435Z,8.22
2019-05-02T00:17:25.841Z,8.18
2019-05-02T00:18:20.505Z,8.23
2019-05-02T00:19:20.551Z,8.19
2019-05-02T00:20:21.101Z,8.15
2019-05-02T00:21:20.622Z,8.25
2019-05-02T00:22:20.661Z,8.18
2019-05-02T00:23:22.986Z,8.18
2019-05-02T00:24:20.741Z,8.16
2019-05-02T00:25:20.778Z,8.19
2019-05-02T00:26:24.526Z,8.18
2019-05-02T00:27:20.865Z,8.16
2019-05-02T00:28:20.902Z,8.11
2019-05-02T00:29:23.750Z,8.12
2019-05-02T00:30:20.974Z,8.08
2019-05-02T00:31:21.020Z,8.12
2019-05-02T00:32:22.569Z,8.15
2019-05-02T00:33:21.088Z,8.05
2019-05-02T00:34:21.127Z,8.12
2019-05-02T00:35:21.170Z,8.05
2019-05-02T00:36:21.204Z,8.08
2019-05-02T00:37:24.720Z,8.04
2019-05-02T00:38:21.282Z,8.04
2019-05-02T00:39:21.324Z,8.01
2019-05-02T00:40:25.688Z,8.01
2019-05-02T00:41:21.399Z,7.93
2019-05-02T00:42:22.398Z,8.01
2019-05-02T00:43:21.473Z,8.02
2019-05-02T00:44:21.515Z,7.92
2019-05-02T00:45:23.982Z,7.92
2019-05-02T00:46:21.591Z,7.85
2019-05-02T00:47:21.655Z,7.87
2019-05-02T00:48:23.148Z,7.77
2019-05-02T00:49:21.712Z,7.82
2019-05-02T00:50:21.746Z,7.75
2019-05-02T00:51:21.948Z,7.72
2019-05-02T00:52:21.830Z,7.68
2019-05-02T00:53:21.870Z,7.68
2019-05-02T00:54:24.262Z,7.57
2019-05-02T00:55:21.940Z,7.61
2019-05-02T00:56:21.981Z,7.53
2019-05-02T00:57:22.024Z,7.46
2019-05-02T00:58:22.058Z,7.61
2019-05-02T00:59:22.095Z,7.60
2019-05-02T01:00:22.136Z,7.60
2019-05-02T01:01:24.332Z,7.64
2019-05-02T01:02:22.212Z,7.55
2019-05-02T01:03:22.249Z,7.52
2019-05-02T01:04:23.331Z,7.60
2019-05-02T01:05:22.331Z,7.52
2019-05-02T01:06:22.365Z,7.60
2019-05-02T01:07:25.562Z,7.61
2019-05-02T01:08:22.442Z,7.55
2019-05-02T01:09:22.480Z,7.52
2019-05-02T01:10:22.590Z,7.61
2019-05-02T01:11:22.557Z,7.55
2019-05-02T01:12:26.535Z,7.57
2019-05-02T01:13:22.652Z,7.50
2019-05-02T01:14:26.816Z,7.53
2019-05-02T01:15:22.716Z,7.50
2019-05-02T01:16:22.750Z,7.43
2019-05-02T01:17:26.031Z,7.45
2019-05-02T01:18:22.827Z,7.48
2019-05-02T01:19:22.865Z,7.49
2019-05-02T01:20:27.595Z,7.52
2019-05-02T01:21:22.943Z,7.48
2019-05-02T01:22:22.981Z,7.49
2019-05-02T01:23:27.149Z,7.46
2019-05-02T01:24:23.060Z,7.45
2019-05-02T01:25:23.101Z,7.48
2019-05-02T01:26:24.227Z,7.45
2019-05-02T01:27:23.174Z,7.37
2019-05-02T01:28:23.214Z,7.42
2019-05-02T01:29:24.910Z,7.39
2019-05-02T01:30:23.290Z,7.40
2019-05-02T01:31:23.327Z,7.40
2019-05-02T01:32:25.137Z,7.35
2019-05-02T01:33:23.412Z,7.34
2019-05-02T01:34:23.442Z,7.31
2019-05-02T01:35:27.052Z,7.27
2019-05-02T01:36:23.521Z,7.27
2019-05-02T01:37:23.556Z,7.24
2019-05-02T01:38:26.273Z,7.20
2019-05-02T01:39:23.632Z,7.27
2019-05-02T01:40:23.680Z,7.23
2019-05-02T01:41:28.554Z,7.21
2019-05-02T01:42:23.751Z,7.25
2019-05-02T01:43:25.348Z,7.21
2019-05-02T01:44:23.825Z,7.13
2019-05-02T01:45:23.866Z,7.24
2019-05-02T01:46:24.186Z,7.21
2019-05-02T01:47:23.942Z,7.24
2019-05-02T01:48:23.978Z,7.23
2019-05-02T01:49:24.016Z,7.21
2019-05-02T01:50:24.055Z,7.17
2019-05-02T01:51:24.093Z,7.20
2019-05-02T01:52:24.961Z,7.10
2019-05-02T01:53:24.168Z,7.15
2019-05-02T01:54:24.209Z,7.17
2019-05-02T01:55:24.245Z,7.09
2019-05-02T01:56:24.285Z,6.98
2019-05-02T01:57:24.323Z,7.07
2019-05-02T01:58:24.360Z,7.05
2019-05-02T01:59:24.399Z,7.06
2019-05-02T02:00:24.448Z,6.94
2019-05-02T02:01:24.482Z,6.95
2019-05-02T02:02:28.059Z,6.98
2019-05-02T02:03:24.552Z,7.07
2019-05-02T02:04:24.615Z,7.10
2019-05-02T02:05:27.552Z,7.13
2019-05-02T02:06:24.670Z,7.05
2019-05-02T02:07:24.704Z,7.03
2019-05-02T02:08:27.233Z,7.02
2019-05-02T02:09:24.781Z,7.07
2019-05-02T02:10:24.822Z,7.06
2019-05-02T02:11:28.471Z,7.07
2019-05-02T02:12:24.896Z,7.05
2019-05-02T02:13:24.935Z,7.05
2019-05-02T02:14:24.974Z,7.02
2019-05-02T02:15:28.933Z,6.94
2019-05-02T02:16:25.059Z,7.03
2019-05-02T02:17:25.089Z,6.89
2019-05-02T02:18:27.494Z,6.91
2019-05-02T02:19:25.164Z,6.91
2019-05-02T02:20:25.210Z,6.89
2019-05-02T02:21:27.365Z,6.94
2019-05-02T02:22:25.279Z,6.95
2019-05-02T02:23:25.318Z,7.07
2019-05-02T02:24:26.386Z,6.97
2019-05-02T02:25:25.394Z,6.91
2019-05-02T02:26:25.435Z,6.95
2019-05-02T02:27:25.810Z,6.91
2019-05-02T02:28:25.514Z,6.95
2019-05-02T02:29:25.550Z,6.87
2019-05-02T02:30:26.692Z,6.88
2019-05-02T02:31:25.625Z,6.81
2019-05-02T02:32:26.791Z,6.84
2019-05-02T02:33:25.702Z,6.94
2019-05-02T02:34:29.279Z,6.91
2019-05-02T02:35:25.777Z,6.88
2019-05-02T02:36:31.261Z,6.94
2019-05-02T02:37:25.852Z,6.88
2019-05-02T02:38:26.740Z,6.92
2019-05-02T02:39:25.935Z,6.89
2019-05-02T02:40:32.572Z,6.77
2019-05-02T02:41:26.004Z,6.87
2019-05-02T02:42:31.653Z,6.85
2019-05-02T02:43:34.345Z,6.79
2019-05-02T02:44:26.120Z,6.77
2019-05-02T02:45:26.156Z,6.70
2019-05-02T02:46:30.681Z,6.71
2019-05-02T02:47:26.236Z,6.69
2019-05-02T02:48:26.281Z,6.69
2019-05-02T02:49:26.310Z,6.62
2019-05-02T02:50:26.348Z,6.61
2019-05-02T02:51:26.562Z,6.70
2019-05-02T02:52:26.423Z,6.64
2019-05-02T02:53:26.463Z,6.61
2019-05-02T02:54:26.515Z,6.59
2019-05-02T02:55:26.540Z,6.58
2019-05-02T02:56:26.578Z,6.61
2019-05-02T02:57:28.495Z,6.58
2019-05-02T02:58:26.654Z,6.62
2019-05-02T02:59:28.207Z,6.56
2019-05-02T03:00:26.730Z,6.61
2019-05-02T03:01:29.332Z,6.58
2019-05-02T03:02:26.804Z,6.64
2019-05-02T03:03:28.115Z,6.54
2019-05-02T03:04:26.881Z,6.58
2019-05-02T03:05:27.800Z,6.58
2019-05-02T03:06:26.961Z,6.62
2019-05-02T03:07:28.936Z,6.64
2019-05-02T03:08:27.033Z,6.66
2019-05-02T03:09:28.876Z,6.67
2019-05-02T03:10:27.120Z,6.73
2019-05-02T03:11:27.146Z,6.70
2019-05-02T03:12:27.187Z,6.73
2019-05-02T03:13:27.234Z,6.73
2019-05-02T03:14:27.261Z,6.73
2019-05-02T03:15:28.258Z,6.76
2019-05-02T03:16:27.338Z,6.87
2019-05-02T03:17:28.736Z,6.89
2019-05-02T03:18:27.414Z,6.80
2019-05-02T03:19:27.453Z,6.87
2019-05-02T03:20:27.491Z,6.81
2019-05-02T03:21:27.529Z,6.87
2019-05-02T03:22:27.572Z,6.79
2019-05-02T03:23:27.606Z,6.77
2019-05-02T03:24:27.645Z,6.74
2019-05-02T03:25:49.206Z,6.85
2019-05-02T03:26:27.719Z,6.74
2019-05-02T03:27:29.920Z,6.76
2019-05-02T03:28:27.796Z,6.74
2019-05-02T03:29:39.116Z,6.77
2019-05-02T03:30:36.954Z,6.84
2019-05-02T03:31:30.304Z,6.84
2019-05-02T03:32:34.254Z,6.80
2019-05-02T03:33:27.986Z,6.77
2019-05-02T03:34:45.480Z,6.81
2019-05-02T03:35:43.126Z,6.81
2019-05-02T03:36:34.901Z,6.84
2019-05-02T03:37:28.139Z,6.84
2019-05-02T03:38:32.766Z,6.79
2019-05-02T03:39:28.212Z,6.85
2019-05-02T03:40:32.333Z,6.87
2019-05-02T03:41:28.288Z,6.91
2019-05-02T03:42:28.329Z,6.85
2019-05-02T03:43:28.366Z,6.88
2019-05-02T03:44:28.439Z,6.94
2019-05-02T03:45:32.027Z,7.03
2019-05-02T03:46:28.484Z,7.09
2019-05-02T03:47:28.517Z,7.03
2019-05-02T03:48:28.556Z,7.09
2019-05-02T03:49:28.592Z,7.15
2019-05-02T03:50:32.403Z,7.21
2019-05-02T03:51:28.670Z,7.21
2019-05-02T03:52:28.721Z,7.24
2019-05-02T03:53:28.745Z,7.20
2019-05-02T03:54:28.784Z,7.24
2019-05-02T03:55:30.775Z,7.32
2019-05-02T03:56:28.859Z,7.35
2019-05-02T03:57:33.422Z,7.42
2019-05-02T03:58:28.938Z,7.48
2019-05-02T03:59:36.805Z,7.55
2019-05-02T04:00:29.016Z,7.63
2019-05-02T04:01:34.610Z,7.63
2019-05-02T04:02:29.099Z,7.60
2019-05-02T04:03:34.070Z,7.74
2019-05-02T04:04:29.165Z,7.79
2019-05-02T04:05:33.741Z,7.68
2019-05-02T04:06:29.250Z,7.79
2019-05-02T04:07:39.733Z,7.85
2019-05-02T04:08:29.320Z,7.82
2019-05-02T04:09:32.185Z,7.79
2019-05-02T04:10:29.399Z,7.89
2019-05-02T04:11:38.382Z,7.92
2019-05-02T04:12:32.819Z,7.98
2019-05-02T04:13:30.117Z,7.97
2019-05-02T04:14:37.877Z,7.98
2019-05-02T04:15:35.257Z,7.98
2019-05-02T04:16:29.639Z,8.00
2019-05-02T04:17:35.754Z,8.05
2019-05-02T04:18:29.712Z,8.01
2019-05-02T04:19:34.825Z,8.04
2019-05-02T04:20:29.785Z,8.04
2019-05-02T04:21:29.828Z,8.08
2019-05-02T04:22:29.859Z,8.11
2019-05-02T04:23:29.989Z,8.01
2019-05-02T04:24:29.936Z,8.15
2019-05-02T04:25:34.022Z,8.10
2019-05-02T04:26:30.014Z,8.15
2019-05-02T04:27:34.191Z,8.16
2019-05-02T04:28:30.091Z,8.15
2019-05-02T04:29:31.225Z,8.16
2019-05-02T04:30:30.169Z,8.20
2019-05-02T04:31:32.281Z,8.18
2019-05-02T04:32:30.247Z,8.26
2019-05-02T04:33:35.072Z,8.29
2019-05-02T04:34:30.328Z,8.26
2019-05-02T04:35:34.833Z,8.23
2019-05-02T04:36:30.402Z,8.30
2019-05-02T04:37:34.507Z,8.37
2019-05-02T04:38:39.106Z,8.34
2019-05-02T04:39:30.519Z,8.34
2019-05-02T04:40:34.809Z,8.38
2019-05-02T04:41:33.603Z,8.41
2019-05-02T04:42:30.638Z,8.52
2019-05-02T04:43:30.682Z,8.50
2019-05-02T04:44:40.701Z,8.50
2019-05-02T04:45:47.346Z,8.52
2019-05-02T04:46:31.352Z,8.48
2019-05-02T04:47:30.839Z,8.53
2019-05-02T04:48:34.586Z,8.48
2019-05-02T04:49:35.572Z,8.52
2019-05-02T04:50:30.947Z,8.56
2019-05-02T04:51:31.956Z,8.59
2019-05-02T04:52:31.032Z,8.66
2019-05-02T04:53:36.651Z,8.70
2019-05-02T04:54:32.564Z,8.70
2019-05-02T04:55:33.454Z,8.73
2019-05-02T04:56:31.192Z,8.66
2019-05-02T04:57:37.020Z,8.63
2019-05-02T04:58:34.804Z,8.73
2019-05-02T04:59:33.272Z,8.73
2019-05-02T05:00:31.340Z,8.74
2019-05-02T05:01:41.929Z,8.77
2019-05-02T05:02:36.476Z,8.87
2019-05-02T05:03:31.454Z,8.84
2019-05-02T05:04:33.272Z,8.86
2019-05-02T05:05:31.535Z,8.87
2019-05-02T05:06:31.574Z,8.89
2019-05-02T05:07:40.948Z,8.96
2019-05-02T05:08:31.995Z,9.10
2019-05-02T05:09:31.699Z,9.04
2019-05-02T05:10:40.151Z,9.10
2019-05-02T05:11:31.768Z,9.18
2019-05-02T05:12:32.593Z,9.24
2019-05-02T05:13:31.848Z,9.28
2019-05-02T05:14:39.245Z,9.24
2019-05-02T05:15:38.301Z,9.31
2019-05-02T05:16:32.016Z,9.21
2019-05-02T05:17:34.056Z,9.28
2019-05-02T05:18:32.043Z,9.36
2019-05-02T05:19:32.900Z,9.40
2019-05-02T05:20:32.121Z,9.33
2019-05-02T05:21:32.161Z,9.42
2019-05-02T05:22:36.485Z,9.31
2019-05-02T05:23:32.239Z,9.53
2019-05-02T05:24:32.796Z,9.40
2019-05-02T05:25:32.317Z,9.51
2019-05-02T05:26:33.960Z,9.54
2019-05-02T05:27:32.398Z,9.53
2019-05-02T05:28:35.023Z,9.58
2019-05-02T05:29:32.478Z,9.56
2019-05-02T05:30:32.517Z,9.60
2019-05-02T05:31:32.554Z,9.57
2019-05-02T05:32:32.600Z,9.60
2019-05-02T05:33:32.643Z,9.69
2019-05-02T05:34:32.920Z,9.58
2019-05-02T05:35:32.714Z,9.79
2019-05-02T05:36:34.066Z,9.76
2019-05-02T05:37:32.794Z,9.74
2019-05-02T05:38:35.890Z,9.83
2019-05-02T05:39:32.871Z,9.86
2019-05-02T05:40:32.913Z,9.86
2019-05-02T05:41:32.951Z,9.90
2019-05-02T05:42:33.487Z,9.91
2019-05-02T05:43:33.029Z,9.87
2019-05-02T05:44:33.069Z,9.97
2019-05-02T05:45:33.109Z,10.07
2019-05-02T05:46:37.728Z,9.97
2019-05-02T05:47:33.220Z,10.04
2019-05-02T05:48:39.134Z,9.99
2019-05-02T05:49:33.268Z,10.04
2019-05-02T05:50:37.700Z,10.08
2019-05-02T05:51:33.347Z,10.09
2019-05-02T05:52:38.646Z,10.12
2019-05-02T05:53:33.433Z,10.08
2019-05-02T05:54:40.431Z,10.15
2019-05-02T05:55:33.507Z,10.17
2019-05-02T05:56:39.718Z,10.04
2019-05-02T05:57:33.588Z,10.07
2019-05-02T05:58:33.626Z,10.23
2019-05-02T05:59:33.673Z,10.25
2019-05-02T06:00:33.709Z,10.40
2019-05-02T06:01:35.813Z,10.42
2019-05-02T06:02:50.919Z,10.55
2019-05-02T06:03:38.465Z,10.64
2019-05-02T06:04:33.864Z,10.70
2019-05-02T06:05:38.459Z,10.76
2019-05-02T06:06:33.945Z,10.82
2019-05-02T06:07:41.137Z,10.82
2019-05-02T06:08:34.035Z,10.92
2019-05-02T06:09:34.066Z,10.96
2019-05-02T06:10:34.109Z,11.07
2019-05-02T06:11:34.145Z,11.14
2019-05-02T06:12:35.603Z,11.22
2019-05-02T06:13:34.226Z,11.36
2019-05-02T06:14:34.804Z,11.42
2019-05-02T06:15:38.873Z,11.49
2019-05-02T06:16:35.417Z,11.51
2019-05-02T06:17:34.388Z,11.67
2019-05-02T06:18:36.396Z,11.67
2019-05-02T06:19:34.468Z,11.65
2019-05-02T06:20:34.508Z,11.64
2019-05-02T06:21:34.557Z,11.65
2019-05-02T06:22:34.590Z,11.73
2019-05-02T06:23:36.394Z,11.76
2019-05-02T06:24:34.672Z,11.83
2019-05-02T06:25:36.770Z,11.72
2019-05-02T06:26:34.756Z,11.86
2019-05-02T06:27:34.794Z,11.94
2019-05-02T06:28:36.220Z,11.94
2019-05-02T06:29:34.880Z,12.05
2019-05-02T06:30:34.932Z,12.04
2019-05-02T06:31:38.202Z,11.91
2019-05-02T06:32:35.000Z,11.96
2019-05-02T06:33:35.042Z,12.10
2019-05-02T06:34:38.738Z,12.12
2019-05-02T06:35:35.122Z,12.09
2019-05-02T06:36:36.833Z,12.04
2019-05-02T06:37:35.214Z,12.13
2019-05-02T06:38:35.250Z,12.12
2019-05-02T06:39:35.288Z,12.19
2019-05-02T06:40:39.417Z,12.14
2019-05-02T06:41:35.428Z,12.24
2019-05-02T06:42:37.899Z,12.24
2019-05-02T06:43:35.451Z,12.31
2019-05-02T06:44:35.502Z,12.35
2019-05-02T06:45:37.566Z,12.38
2019-05-02T06:46:35.576Z,12.41
2019-05-02T06:47:35.893Z,12.42
2019-05-02T06:48:35.659Z,12.56
2019-05-02T06:49:35.701Z,12.49
2019-05-02T06:50:38.838Z,12.57
2019-05-02T06:51:35.784Z,12.68
2019-05-02T06:52:35.825Z,12.72
2019-05-02T06:53:35.872Z,12.70
2019-05-02T06:54:35.909Z,12.77
2019-05-02T06:55:38.526Z,12.77
2019-05-02T06:56:35.992Z,12.74
2019-05-02T06:57:36.044Z,12.74
2019-05-02T06:58:37.072Z,12.77
2019-05-02T06:59:36.125Z,12.71
2019-05-02T07:00:55.201Z,12.71
2019-05-02T07:01:36.200Z,12.77
2019-05-02T07:02:36.243Z,12.78
2019-05-02T07:03:36.285Z,12.86
2019-05-02T07:04:36.328Z,12.72
2019-05-02T07:05:36.369Z,12.83
2019-05-02T07:06:55.928Z,12.78
2019-05-02T07:07:37.253Z,12.78
2019-05-02T07:08:36.501Z,12.78
2019-05-02T07:09:41.023Z,12.75
2019-05-02T07:10:44.414Z,12.79
2019-05-02T07:11:38.953Z,12.72
2019-05-02T07:12:36.680Z,12.77
2019-05-02T07:13:42.060Z,12.79
2019-05-02T07:14:36.748Z,12.79
2019-05-02T07:15:38.551Z,12.79
2019-05-02T07:16:38.766Z,12.78
2019-05-02T07:17:38.389Z,12.78
2019-05-02T07:18:36.914Z,12.83
2019-05-02T07:19:36.955Z,12.86
2019-05-02T07:20:40.662Z,12.89
2019-05-02T07:21:37.044Z,12.95
2019-05-02T07:22:38.760Z,12.96
2019-05-02T07:23:37.224Z,13.00
2019-05-02T07:24:37.165Z,12.96
2019-05-02T07:25:39.065Z,13.03
2019-05-02T07:26:37.251Z,13.01
2019-05-02T07:27:39.186Z,13.03
2019-05-02T07:28:40.457Z,13.03
2019-05-02T07:29:37.379Z,13.05
2019-05-02T07:30:37.419Z,13.00
2019-05-02T07:31:37.461Z,13.03
2019-05-02T07:32:37.501Z,12.97
2019-05-02T07:33:38.776Z,12.95
2019-05-02T07:34:37.586Z,13.11
2019-05-02T07:35:37.626Z,13.03
2019-05-02T07:36:38.369Z,13.03
2019-05-02T07:37:37.713Z,13.12
2019-05-02T07:38:37.754Z,13.15
2019-05-02T07:39:40.927Z,13.15
2019-05-02T07:40:37.837Z,13.29
2019-05-02T07:41:37.877Z,13.29
2019-05-02T07:42:41.898Z,13.38
2019-05-02T07:43:37.963Z,13.41
2019-05-02T07:44:38.011Z,13.48
2019-05-02T07:45:40.205Z,13.54
2019-05-02T07:46:50.707Z,13.60
2019-05-02T07:47:40.290Z,13.55
2019-05-02T07:48:38.173Z,13.66
2019-05-02T07:49:38.214Z,13.70
2019-05-02T07:50:41.270Z,13.63
2019-05-02T07:51:38.298Z,13.69
2019-05-02T07:52:40.919Z,13.78
2019-05-02T07:53:38.382Z,13.69
2019-05-02T07:54:38.426Z,13.84
2019-05-02T07:55:40.851Z,13.73
2019-05-02T07:56:38.509Z,13.75
2019-05-02T07:57:38.563Z,13.73
2019-05-02T07:58:46.716Z,13.75
2019-05-02T07:59:38.634Z,13.70
2019-05-02T08:00:38.684Z,13.75
2019-05-02T08:01:38.721Z,13.77
2019-05-02T08:02:38.764Z,13.77
2019-05-02T08:03:38.805Z,13.85
2019-05-02T08:04:43.616Z,13.89
2019-05-02T08:05:38.900Z,13.99
2019-05-02T08:06:40.192Z,13.97
2019-05-02T08:07:38.974Z,14.02
2019-05-02T08:08:39.017Z,13.99
2019-05-02T08:09:43.596Z,13.96
2019-05-02T08:10:39.101Z,13.97
2019-05-02T08:11:39.154Z,13.99
2019-05-02T08:12:39.202Z,14.03
2019-05-02T08:13:39.227Z,13.84
2019-05-02T08:14:39.275Z,13.88
2019-05-02T08:15:39.313Z,13.95
2019-05-02T08:16:39.377Z,14.02
2019-05-02T08:17:39.395Z,14.02
2019-05-02T08:18:39.439Z,14.02
2019-05-02T08:19:41.893Z,14.14
2019-05-02T08:20:39.524Z,14.10
2019-05-02T08:21:39.567Z,14.24
2019-05-02T08:22:44.022Z,14.36
2019-05-02T08:23:39.654Z,14.22
2019-05-02T08:24:39.698Z,14.22
2019-05-02T08:25:41.552Z,14.33
2019-05-02T08:26:39.778Z,14.39
2019-05-02T08:27:39.820Z,14.36
2019-05-02T08:28:39.864Z,14.45
2019-05-02T08:29:39.906Z,14.50
2019-05-02T08:30:40.379Z,14.51
2019-05-02T08:31:39.989Z,14.57
2019-05-02T08:32:40.034Z,14.55
2019-05-02T08:33:40.076Z,14.68
2019-05-02T08:34:40.121Z,14.69
2019-05-02T08:35:40.161Z,14.68
2019-05-02T08:36:40.205Z,14.73
2019-05-02T08:37:40.941Z,14.89
2019-05-02T08:38:40.290Z,14.92
2019-05-02T08:39:40.338Z,14.92
2019-05-02T08:40:42.262Z,14.88
2019-05-02T08:41:40.416Z,14.99
2019-05-02T08:42:40.467Z,15.01
2019-05-02T08:43:44.875Z,15.03
2019-05-02T08:44:50.584Z,15.06
2019-05-02T08:45:40.587Z,15.14
2019-05-02T08:46:40.639Z,15.25
2019-05-02T08:47:40.674Z,15.32
2019-05-02T08:48:41.730Z,15.36
2019-05-02T08:49:42.499Z,15.38
2019-05-02T08:50:40.802Z,15.47
2019-05-02T08:51:41.589Z,15.51
2019-05-02T08:52:42.390Z,15.41
2019-05-02T08:53:40.935Z,15.39
2019-05-02T08:54:40.974Z,15.46
2019-05-02T08:55:44.946Z,15.41
2019-05-02T08:56:41.061Z,15.41
2019-05-02T08:57:41.104Z,15.36
2019-05-02T08:58:44.882Z,15.44
2019-05-02T08:59:41.190Z,15.46
2019-05-02T09:00:41.242Z,15.46
2019-05-02T09:01:44.785Z,15.54
2019-05-02T09:02:42.119Z,15.47
2019-05-02T09:03:54.842Z,15.38
2019-05-02T09:04:41.406Z,15.36
2019-05-02T09:05:46.378Z,15.38
2019-05-02T09:06:41.492Z,15.38
2019-05-02T09:07:43.058Z,15.35
2019-05-02T09:08:41.578Z,15.41
2019-05-02T09:09:41.626Z,15.38
2019-05-02T09:10:42.498Z,15.60
2019-05-02T09:11:43.883Z,15.62
2019-05-02T09:12:45.280Z,15.64
2019-05-02T09:13:42.266Z,15.64
2019-05-02T09:14:42.622Z,15.64
2019-05-02T09:15:49.819Z,15.54
2019-05-02T09:16:42.756Z,15.51
2019-05-02T09:17:44.720Z,15.47
2019-05-02T09:18:50.530Z,15.49
2019-05-02T09:19:42.980Z,15.62
2019-05-02T09:20:42.419Z,15.57
2019-05-02T09:21:42.901Z,15.50
2019-05-02T09:22:46.624Z,15.50
2019-05-02T09:23:44.019Z,15.49
2019-05-02T09:24:44.456Z,15.67
2019-05-02T09:25:42.986Z,15.72
2019-05-02T09:26:42.647Z,15.86
2019-05-02T09:27:42.402Z,15.97
2019-05-02T09:28:42.444Z,16.08
2019-05-02T09:29:45.882Z,16.15
2019-05-02T09:30:42.540Z,16.31
2019-05-02T09:31:46.040Z,16.42
2019-05-02T09:32:42.615Z,16.43
2019-05-02T09:33:46.826Z,16.42
2019-05-02T09:34:42.703Z,16.46
2019-05-02T09:35:42.746Z,16.53
2019-05-02T09:36:42.788Z,16.56
2019-05-02T09:37:42.834Z,16.58
2019-05-02T09:38:42.904Z,16.81
2019-05-02T09:39:42.921Z,16.97
2019-05-02T09:40:47.172Z,17.14
2019-05-02T09:41:43.007Z,17.30
2019-05-02T09:42:47.265Z,17.38
2019-05-02T09:43:43.101Z,17.44
2019-05-02T09:44:43.139Z,17.30
2019-05-02T09:45:44.013Z,17.25
2019-05-02T09:46:47.538Z,17.48
2019-05-02T09:47:56.596Z,17.66
2019-05-02T09:48:43.315Z,17.48
2019-05-02T09:49:48.878Z,17.54
2019-05-02T09:50:43.407Z,17.55
2019-05-02T09:51:45.582Z,17.54
2019-05-02T09:52:44.218Z,17.56
2019-05-02T09:53:43.535Z,17.52
2019-05-02T09:54:46.084Z,17.56
2019-05-02T09:55:50.076Z,17.71
2019-05-02T09:56:43.678Z,17.77
2019-05-02T09:57:43.714Z,17.62
2019-05-02T09:58:43.761Z,17.66
2019-05-02T09:59:50.434Z,17.64
2019-05-02T10:00:43.850Z,17.72
2019-05-02T10:01:43.895Z,17.72
2019-05-02T10:02:43.939Z,17.84
2019-05-02T10:03:43.987Z,17.78
2019-05-02T10:04:44.202Z,17.79
2019-05-02T10:05:44.079Z,17.87
2019-05-02T10:06:44.118Z,17.96
2019-05-02T10:07:44.165Z,17.99
2019-05-02T10:08:46.586Z,17.97
2019-05-02T10:09:44.253Z,17.90
2019-05-02T10:10:46.018Z,17.96
2019-05-02T10:11:44.345Z,17.90
2019-05-02T10:12:44.392Z,18.02
2019-05-02T10:13:44.445Z,17.86
2019-05-02T10:14:44.478Z,17.97
2019-05-02T10:15:44.525Z,17.84
2019-05-02T10:16:44.588Z,17.55
2019-05-02T10:17:46.758Z,17.64
2019-05-02T10:18:44.662Z,17.51
2019-05-02T10:19:49.166Z,17.33
2019-05-02T10:20:44.752Z,17.22
2019-05-02T10:21:46.946Z,17.03
2019-05-02T10:22:44.842Z,17.04
2019-05-02T10:23:44.884Z,16.88
2019-05-02T10:24:44.928Z,16.82
2019-05-02T10:25:46.946Z,16.88
2019-05-02T10:26:45.021Z,16.93
2019-05-02T10:27:47.535Z,16.86
2019-05-02T10:28:49.325Z,16.86
2019-05-02T10:29:45.152Z,16.81
2019-05-02T10:30:47.378Z,16.81
2019-05-02T10:31:45.260Z,16.86
2019-05-02T10:32:47.235Z,17.03
2019-05-02T10:33:45.332Z,17.03
2019-05-02T10:34:47.479Z,17.06
2019-05-02T10:35:45.421Z,17.14
2019-05-02T10:36:45.623Z,17.11
2019-05-02T10:37:45.528Z,17.08
2019-05-02T10:38:49.028Z,17.12
2019-05-02T10:39:45.599Z,17.22
2019-05-02T10:40:48.444Z,17.30
2019-05-02T10:41:45.688Z,17.43
2019-05-02T10:42:45.741Z,17.49
2019-05-02T10:43:46.947Z,17.59
2019-05-02T10:44:45.822Z,17.62
2019-05-02T10:45:47.420Z,17.75
2019-05-02T10:46:45.912Z,17.95
2019-05-02T10:47:45.964Z,18.05
2019-05-02T10:48:45.999Z,18.15
2019-05-02T10:49:46.045Z,18.17
2019-05-02T10:50:46.090Z,18.20
2019-05-02T10:51:49.699Z,18.41
2019-05-02T10:52:46.181Z,18.52
2019-05-02T10:53:47.066Z,18.75
2019-05-02T10:54:46.270Z,18.90
2019-05-02T10:55:46.313Z,19.10
2019-05-02T10:56:46.358Z,19.13
2019-05-02T10:57:46.409Z,18.90
2019-05-02T10:58:46.453Z,18.82
2019-05-02T10:59:46.504Z,18.94
2019-05-02T11:00:46.544Z,19.08
2019-05-02T11:01:46.586Z,18.92
2019-05-02T11:02:46.643Z,18.98
2019-05-02T11:03:47.568Z,18.81
2019-05-02T11:04:46.723Z,18.66
2019-05-02T11:05:46.769Z,18.76
2019-05-02T11:06:46.826Z,18.55
2019-05-02T11:07:46.858Z,18.67
2019-05-02T11:08:46.906Z,18.70
2019-05-02T11:09:46.954Z,18.76
2019-05-02T11:10:46.997Z,18.67
2019-05-02T11:11:47.045Z,18.76
2019-05-02T11:12:47.339Z,18.70
2019-05-02T11:13:47.137Z,18.87
2019-05-02T11:14:47.180Z,18.84
2019-05-02T11:15:47.227Z,18.92
2019-05-02T11:16:47.272Z,18.80
2019-05-02T11:17:47.319Z,18.70
2019-05-02T11:18:47.365Z,18.81
2019-05-02T11:19:47.408Z,18.85
2019-05-02T11:20:47.458Z,18.98
2019-05-02T11:21:56.497Z,19.11
2019-05-02T11:22:47.546Z,19.14
2019-05-02T11:23:47.689Z,18.94
2019-05-02T11:24:47.672Z,18.95
2019-05-02T11:25:47.680Z,18.98
2019-05-02T11:26:47.728Z,19.07
2019-05-02T11:27:47.771Z,19.21
2019-05-02T11:28:47.818Z,19.29
2019-05-02T11:29:47.863Z,19.46
2019-05-02T11:30:47.932Z,19.37
2019-05-02T11:31:47.955Z,19.29
2019-05-02T11:32:48.001Z,19.23
2019-05-02T11:33:48.053Z,19.21
2019-05-02T11:34:48.143Z,19.19
2019-05-02T11:35:49.375Z,19.16
2019-05-02T11:36:48.194Z,19.19
2019-05-02T11:37:48.230Z,19.41
2019-05-02T11:38:55.902Z,19.55
2019-05-02T11:39:52.267Z,19.68
2019-05-02T11:40:48.369Z,19.71
2019-05-02T11:41:48.516Z,19.73
2019-05-02T11:42:48.465Z,19.78
2019-05-02T11:43:48.520Z,19.84
2019-05-02T11:44:48.552Z,19.83
2019-05-02T11:45:48.616Z,19.88
2019-05-02T11:46:48.646Z,20.02
2019-05-02T11:47:48.691Z,20.03
2019-05-02T11:48:56.386Z,19.98
2019-05-02T11:49:52.084Z,19.94
2019-05-02T11:50:48.830Z,19.88
2019-05-02T11:51:55.319Z,19.84
2019-05-02T11:52:48.929Z,19.56
2019-05-02T11:53:48.979Z,19.33
2019-05-02T11:54:49.019Z,19.25
2019-05-02T11:55:49.060Z,19.19
2019-05-02T11:56:50.497Z,19.19
2019-05-02T11:57:49.160Z,19.21
2019-05-02T11:58:50.258Z,19.16
2019-05-02T11:59:49.245Z,19.21
2019-05-02T12:00:49.745Z,19.29
2019-05-02T12:01:59.100Z,19.40
2019-05-02T12:02:56.217Z,19.47
2019-05-02T12:03:49.433Z,19.44
2019-05-02T12:04:54.287Z,19.21
2019-05-02T12:05:49.529Z,19.06
2019-05-02T12:06:59.016Z,18.95
2019-05-02T12:07:49.622Z,18.76
2019-05-02T12:08:49.659Z,18.69
2019-05-02T12:09:52.044Z,18.75
2019-05-02T12:10:51.774Z,18.78
2019-05-02T12:11:54.972Z,18.84
2019-05-02T12:12:49.841Z,18.81
2019-05-02T12:13:52.813Z,18.76
2019-05-02T12:14:49.933Z,18.82
2019-05-02T12:15:51.853Z,18.72
2019-05-02T12:16:50.022Z,18.73
2019-05-02T12:17:51.640Z,18.65
2019-05-02T12:18:50.115Z,18.66
2019-05-02T12:19:52.221Z,18.70
2019-05-02T12:20:52.056Z,18.70
2019-05-02T12:21:50.312Z,18.58
2019-05-02T12:22:50.322Z,18.55
2019-05-02T12:23:52.000Z,18.57
2019-05-02T12:24:51.911Z,18.55
2019-05-02T12:25:51.994Z,18.65
2019-05-02T12:26:52.688Z,18.51
2019-05-02T12:27:52.560Z,18.58
2019-05-02T12:28:52.437Z,18.45
2019-05-02T12:29:57.913Z,18.44
2019-05-02T12:30:51.949Z,18.44
2019-05-02T12:31:54.704Z,18.48
2019-05-02T12:32:52.985Z,18.62
2019-05-02T12:33:51.611Z,18.62
2019-05-02T12:34:52.641Z,18.78
2019-05-02T12:35:52.493Z,18.88
2019-05-02T12:36:52.286Z,19.10
2019-05-02T12:37:52.426Z,19.19
2019-05-02T12:38:52.742Z,19.41
2019-05-02T12:39:51.698Z,19.58
2019-05-02T12:40:52.042Z,19.54
2019-05-02T12:41:53.547Z,19.73
2019-05-02T12:42:52.576Z,19.77
2019-05-02T12:43:52.466Z,19.74
2019-05-02T12:44:53.131Z,19.63
2019-05-02T12:45:52.760Z,19.54
2019-05-02T12:46:51.846Z,19.44
2019-05-02T12:47:52.315Z,19.54
2019-05-02T12:48:52.141Z,19.51
2019-05-02T12:49:52.040Z,19.56
2019-05-02T12:50:52.769Z,19.61
2019-05-02T12:51:52.482Z,19.54
2019-05-02T12:52:52.151Z,19.50
2019-05-02T12:53:52.812Z,19.65
2019-05-02T12:54:52.588Z,19.65
2019-05-02T12:55:52.747Z,19.73
2019-05-02T12:56:52.870Z,19.74
2019-05-02T12:57:52.410Z,19.78
2019-05-02T12:58:52.970Z,19.80
2019-05-02T12:59:52.531Z,19.81
2019-05-02T13:00:53.075Z,19.83
2019-05-02T13:01:52.121Z,19.78
2019-05-02T13:02:52.580Z,20.01
2019-05-02T13:03:52.173Z,20.01